< < Back
Terminal Aerodrome Forecast


Current Version              Previous Versions:   1  2  3  4  5  6  7  8  9  

Terminal Aerodrome Forecast

236
FTUS42 KTAE 012300
TAFDHN
TAF
KDHN 012325Z 0200/0224 17010KT 2SM RA OVC008
     FM020300 20012KT 6SM -RA OVC005
     FM020700 23013KT 4SM RA OVC007
     FM021000 27014KT P6SM VCSH BKN010
     FM021300 31017G22KT P6SM SCT030 OVC060
     FM021700 32015G20KT P6SM SCT050
     FM022100 33012KT P6SM SKC=

Latest METAR

770
SAUS70 KWBC 020200 RRE
MTRDHN
METAR KDHN 020153Z AUTO 17008KT 10SM -RA OVC005 16/14 A2995 RMK AO2 CIG
004V009 SLP141 P0001 T01560144


USA.gov is the U.S. government's official web portal to all federal, state and local government web resources and services.